LSZA Informações do Aeroporto

Informações da Pista
Pista 01 Comprimento 4429 ft Largura 98 ft
Elevação 896 ft Limite 361 ft Heading 19
Pista 19 Comprimento 4429 ft Largura 98 ft
Elevação 915 ft Limite 672 ft Heading 199
Frequências do Aeroporto
Tipo ATIS Nome ATIS Frequência 121.175 MHZ
Tipo GND Nome GND Frequência 121.775 MHZ
Tipo TWR Nome TWR Frequência 120.25 MHZ
Navaids do Aeroporto
Informações meteorológicas do aeroporto e NOTAM
ADDS - METARS form results

(1418 UTC 25 June 2019)
Data provider http://aviationweather.gov/metar/data/
 
METAR text: LSZA 251350Z 19005KT CAVOK 32/19 Q1022 NOSIG
Conditions at: LSZA (LUGANO (PVT/AUT), CH) observed 1350 UTC 25 June 2019
Temperature: 32.0°C (90°F)
Dewpoint: 19.0°C (66°F) [RH = 46%]
Pressure (altimeter): 30.18 inches Hg (1022.0 mb)
Winds: from the S (190 degrees) at 6 MPH (5 knots; 2.6 m/s)
Visibility: 6 or more miles (10+ km)
Ceiling: ceiling and visibility are OK
Clouds: unknown
Weather: no significant weather observed at this time

METAR text: LSZA 251320Z 19004KT CAVOK 32/20 Q1022 NOSIG
Conditions at: LSZA (LUGANO (PVT/AUT), CH) observed 1320 UTC 25 June 2019
Temperature: 32.0°C (90°F)
Dewpoint: 20.0°C (68°F) [RH = 49%]
Pressure (altimeter): 30.18 inches Hg (1022.0 mb)
Winds: from the S (190 degrees) at 5 MPH (4 knots; 2.1 m/s)
Visibility: 6 or more miles (10+ km)
Ceiling: ceiling and visibility are OK
Clouds: unknown
Weather: no significant weather observed at this time

Forecast for: LSZA (LUGANO (PVT/AUT), CH)
Text: TAF LSZA 251125Z 2512/2521 19004KT 9999 FEW060
Forecast period: 1200 to 2100 UTC 25 June 2019
Forecast type: FROM: standard forecast or significant change
Winds: from the S (190 degrees) at 5 MPH (4 knots; 2.1 m/s)
Visibility: 6 or more miles 10+ km)
Ceiling: at least 12,000 feet AGL
Clouds: few clouds at 6000 feet AGL
Weather: no significant weather forecast for this period
Text: TEMPO 2512/2521 CAVOK
Forecast period: 1200 to 2100 UTC 25 June 2019
Forecast type: TEMPORARY: The following changes expected for less than half the time period
Visibility: 6 or more miles 10+ km)
Ceiling: unknown
Clouds: missing
Weather: NSW  (no significant weather)